createdAt,value
2022-08-24T00:02:32.484Z,20.28
2022-08-24T00:06:35.984Z,20.28
2022-08-24T00:10:39.681Z,20.26
2022-08-24T00:14:43.239Z,20.25
2022-08-24T00:18:49.255Z,20.26
2022-08-24T00:22:52.501Z,20.27
2022-08-24T00:26:55.886Z,20.29
2022-08-24T00:30:59.282Z,20.32
2022-08-24T00:35:03.696Z,20.36
2022-08-24T00:39:08.100Z,20.36
2022-08-24T00:43:11.990Z,20.39
2022-08-24T00:47:19.858Z,20.41
2022-08-24T00:51:28.660Z,20.40
2022-08-24T00:55:36.015Z,20.41
2022-08-24T00:59:47.878Z,20.36
2022-08-24T01:03:56.635Z,20.36
2022-08-24T01:08:03.202Z,20.38
2022-08-24T01:12:07.068Z,20.37
2022-08-24T01:16:12.833Z,20.32
2022-08-24T01:20:18.284Z,20.34
2022-08-24T01:24:23.668Z,20.33
2022-08-24T01:28:27.858Z,20.31
2022-08-24T01:32:31.356Z,20.34
2022-08-24T01:36:38.801Z,20.36
2022-08-24T01:40:47.732Z,20.37
2022-08-24T01:44:53.033Z,20.32
2022-08-24T01:48:58.066Z,20.31
2022-08-24T01:53:05.598Z,20.32
2022-08-24T01:57:11.130Z,20.36
2022-08-24T02:01:20.314Z,20.37
2022-08-24T02:05:25.642Z,20.34
2022-08-24T02:09:30.438Z,20.31
2022-08-24T02:13:40.118Z,20.31
2022-08-24T02:17:43.447Z,20.29
2022-08-24T02:21:46.908Z,20.29
2022-08-24T02:25:50.294Z,20.28
2022-08-24T02:29:54.752Z,20.28
2022-08-24T02:33:58.266Z,20.26
2022-08-24T02:38:01.491Z,20.27
2022-08-24T02:42:06.457Z,20.25
2022-08-24T02:46:18.935Z,20.25
2022-08-24T02:50:22.207Z,20.24
2022-08-24T02:54:25.249Z,20.24
2022-08-24T02:58:28.990Z,20.25
2022-08-24T03:02:34.831Z,20.25
2022-08-24T03:06:38.257Z,20.25
2022-08-24T03:10:42.158Z,20.23
2022-08-24T03:14:45.809Z,20.23
2022-08-24T03:18:50.668Z,20.23
2022-08-24T03:22:54.158Z,20.22
2022-08-24T03:26:57.514Z,20.21
2022-08-24T03:31:02.971Z,20.20
2022-08-24T03:35:09.183Z,20.19
2022-08-24T03:39:12.408Z,20.18
2022-08-24T03:43:30.566Z,20.19
2022-08-24T03:47:34.532Z,20.15
2022-08-24T03:51:40.852Z,20.13
2022-08-24T03:55:45.594Z,20.10
2022-08-24T03:59:49.570Z,20.08
2022-08-24T04:03:54.055Z,20.06
2022-08-24T04:08:02.862Z,20.07
2022-08-24T04:12:06.687Z,20.08
2022-08-24T04:16:12.986Z,20.08
2022-08-24T04:20:18.398Z,20.06
2022-08-24T04:24:22.960Z,20.06
2022-08-24T04:28:28.510Z,20.05
2022-08-24T04:32:32.799Z,20.06
2022-08-24T04:36:36.334Z,20.07
2022-08-24T04:40:42.199Z,20.08
2022-08-24T04:44:46.276Z,20.09
2022-08-24T04:48:51.143Z,20.07
2022-08-24T04:52:54.469Z,20.10
2022-08-24T04:56:59.598Z,20.12
2022-08-24T05:01:02.706Z,20.15
2022-08-24T05:05:06.331Z,20.18
2022-08-24T05:09:11.207Z,20.21
2022-08-24T05:13:17.306Z,20.25
2022-08-24T05:17:20.606Z,20.27
2022-08-24T05:21:25.796Z,20.31
2022-08-24T05:25:31.683Z,20.36
2022-08-24T05:29:37.410Z,20.40
2022-08-24T05:33:43.207Z,20.44
2022-08-24T05:37:46.598Z,20.45
2022-08-24T05:41:51.058Z,20.51
2022-08-24T05:46:04.724Z,20.58
2022-08-24T05:50:08.845Z,20.66
2022-08-24T05:54:13.740Z,20.73
2022-08-24T05:58:31.337Z,20.79
2022-08-24T06:02:40.109Z,20.82
2022-08-24T06:06:43.809Z,20.88
2022-08-24T06:10:53.128Z,20.91
2022-08-24T06:14:56.319Z,20.96
2022-08-24T06:19:01.720Z,21.04
2022-08-24T06:23:05.619Z,21.14
2022-08-24T06:27:25.593Z,21.25
2022-08-24T06:31:34.430Z,21.35
2022-08-24T06:35:47.075Z,21.44
2022-08-24T06:39:54.974Z,21.49
2022-08-24T06:43:59.271Z,21.54
2022-08-24T06:48:19.429Z,21.63
2022-08-24T06:52:24.568Z,21.70
2022-08-24T06:56:28.227Z,21.76
2022-08-24T07:00:31.776Z,21.86
2022-08-24T07:04:34.916Z,21.97
2022-08-24T07:08:58.403Z,22.10
2022-08-24T07:13:04.049Z,22.19
2022-08-24T07:17:07.887Z,22.34
2022-08-24T07:21:11.656Z,22.49
2022-08-24T07:25:23.621Z,22.64
2022-08-24T07:29:47.239Z,22.83
2022-08-24T07:33:52.307Z,22.92
2022-08-24T07:37:56.527Z,22.96
2022-08-24T07:42:25.385Z,23.09
2022-08-24T07:46:25.774Z,23.18
2022-08-24T07:50:31.694Z,23.29
2022-08-24T07:54:36.020Z,23.44
2022-08-24T07:58:41.997Z,23.52
2022-08-24T08:02:47.334Z,23.62
2022-08-24T08:06:53.031Z,23.77
2022-08-24T08:10:57.532Z,23.90
2022-08-24T08:15:02.083Z,24.04
2022-08-24T08:19:12.727Z,24.16
2022-08-24T08:23:37.123Z,24.26
2022-08-24T08:31:55.994Z,24.40
2022-08-24T08:36:06.087Z,24.30
2022-08-24T08:40:23.493Z,24.28
2022-08-24T08:44:39.904Z,24.25
2022-08-24T08:49:03.957Z,24.29
2022-08-24T08:53:56.057Z,24.25
2022-08-24T08:58:17.475Z,24.22
2022-08-24T09:02:35.618Z,24.23
2022-08-24T09:07:08.571Z,24.34
2022-08-24T09:11:24.910Z,24.43
2022-08-24T09:15:57.724Z,24.66
2022-08-24T09:20:17.451Z,24.82
2022-08-24T09:24:42.459Z,24.89
2022-08-24T09:29:11.149Z,25.07
2022-08-24T09:33:21.565Z,25.17
2022-08-24T09:37:33.883Z,25.21
2022-08-24T09:42:22.021Z,25.17
2022-08-24T09:46:59.213Z,25.38
2022-08-24T09:51:31.666Z,25.47
2022-08-24T09:56:06.057Z,25.47
2022-08-24T10:00:19.828Z,25.48
2022-08-24T10:04:33.044Z,25.51
2022-08-24T10:08:50.167Z,25.51
2022-08-24T10:13:04.458Z,25.69
2022-08-24T10:17:19.316Z,25.72
2022-08-24T10:21:38.277Z,25.69
2022-08-24T10:25:52.762Z,25.73
2022-08-24T10:30:23.902Z,25.93
2022-08-24T10:34:47.883Z,25.97
2022-08-24T10:39:16.272Z,26.02
2022-08-24T10:43:46.638Z,26.01
2022-08-24T10:48:12.394Z,26.18
2022-08-24T10:52:48.291Z,26.40
2022-08-24T10:57:08.172Z,26.49
2022-08-24T11:01:20.674Z,26.59
2022-08-24T11:05:31.463Z,26.69
2022-08-24T11:09:46.995Z,26.68
2022-08-24T11:13:54.477Z,26.68
2022-08-24T11:18:00.341Z,26.83
2022-08-24T11:22:06.147Z,26.84
2022-08-24T11:26:19.828Z,26.85
2022-08-24T11:30:28.476Z,26.96
2022-08-24T11:34:35.995Z,27.05
2022-08-24T11:38:39.069Z,27.08
2022-08-24T11:43:05.880Z,27.22
2022-08-24T11:47:47.957Z,27.24
2022-08-24T11:52:01.960Z,27.21
2022-08-24T11:56:15.424Z,27.27
2022-08-24T12:00:23.638Z,27.15
2022-08-24T12:04:39.530Z,27.12
2022-08-24T12:08:52.535Z,27.27
2022-08-24T12:13:03.348Z,27.34
2022-08-24T12:17:15.764Z,27.27
2022-08-24T12:21:22.877Z,27.28
2022-08-24T12:25:48.430Z,27.34
2022-08-24T12:29:58.467Z,27.48
2022-08-24T12:34:09.754Z,27.50
2022-08-24T12:38:17.090Z,27.51
2022-08-24T12:42:35.866Z,27.58
2022-08-24T12:46:40.316Z,27.74
2022-08-24T12:50:59.106Z,27.76
2022-08-24T12:55:20.998Z,27.80
2022-08-24T12:59:28.203Z,27.75
2022-08-24T13:03:34.368Z,27.67
2022-08-24T13:07:42.828Z,27.69
2022-08-24T13:11:46.154Z,27.70
2022-08-24T13:16:03.116Z,27.58
2022-08-24T13:20:23.845Z,27.54
2022-08-24T13:24:43.175Z,27.63
2022-08-24T13:28:49.410Z,27.68
2022-08-24T13:33:04.803Z,27.51
2022-08-24T13:37:18.824Z,27.49
2022-08-24T13:41:48.671Z,27.60
2022-08-24T13:45:58.104Z,27.68
2022-08-24T13:50:11.275Z,27.63
2022-08-24T13:54:28.418Z,27.52
2022-08-24T13:58:43.180Z,27.49
2022-08-24T14:03:03.156Z,27.56
2022-08-24T14:07:15.664Z,27.61
2022-08-24T14:11:35.768Z,27.70
2022-08-24T14:16:10.846Z,27.70
2022-08-24T14:20:24.360Z,27.73
2022-08-24T14:24:41.429Z,27.73
2022-08-24T14:28:49.579Z,27.71
2022-08-24T14:33:09.323Z,27.72
2022-08-24T14:37:24.098Z,27.69
2022-08-24T14:41:55.317Z,27.68
2022-08-24T14:46:09.688Z,27.66
2022-08-24T14:50:17.592Z,27.63
2022-08-24T14:54:32.663Z,27.65
2022-08-24T14:58:49.138Z,27.67
2022-08-24T15:03:35.036Z,27.67
2022-08-24T15:07:38.520Z,27.66
2022-08-24T15:11:43.693Z,27.66
2022-08-24T15:15:54.730Z,27.60
2022-08-24T15:20:09.352Z,27.59
2022-08-24T15:28:34.178Z,27.59
2022-08-24T15:32:48.925Z,27.54
2022-08-24T15:37:02.218Z,27.56
2022-08-24T15:41:11.901Z,27.57
2022-08-24T15:45:15.691Z,27.53
2022-08-24T15:49:25.019Z,27.53
2022-08-24T15:53:39.206Z,27.56
2022-08-24T15:57:45.473Z,27.56
2022-08-24T16:02:14.785Z,27.56
2022-08-24T16:06:26.873Z,27.50
2022-08-24T16:10:32.169Z,27.46
2022-08-24T16:14:40.209Z,27.37
2022-08-24T16:18:54.022Z,27.31
2022-08-24T16:23:01.470Z,27.29
2022-08-24T16:27:07.605Z,27.24
2022-08-24T16:31:11.463Z,27.19
2022-08-24T16:35:18.623Z,27.17
2022-08-24T16:39:23.408Z,27.16
2022-08-24T16:43:27.734Z,27.12
2022-08-24T16:47:31.052Z,27.06
2022-08-24T16:51:34.138Z,26.99
2022-08-24T16:55:39.004Z,26.98
2022-08-24T16:59:45.479Z,26.99
2022-08-24T17:03:49.308Z,26.93
2022-08-24T17:07:52.435Z,26.92
2022-08-24T17:11:57.196Z,26.91
2022-08-24T17:16:00.678Z,26.93
2022-08-24T17:20:07.635Z,26.93
2022-08-24T17:24:11.816Z,26.90
2022-08-24T17:28:19.766Z,26.90
2022-08-24T17:32:23.277Z,26.90
2022-08-24T17:36:30.407Z,26.88
2022-08-24T17:40:35.962Z,26.86
2022-08-24T17:44:40.655Z,26.83
2022-08-24T17:48:46.147Z,26.81
2022-08-24T17:52:49.588Z,26.76
2022-08-24T17:56:59.534Z,26.68
2022-08-24T18:01:04.151Z,26.68
2022-08-24T18:05:10.332Z,26.62
2022-08-24T18:09:19.276Z,26.56
2022-08-24T18:13:22.422Z,26.49
2022-08-24T18:17:33.915Z,26.45
2022-08-24T18:21:37.111Z,26.43
2022-08-24T18:25:45.055Z,26.41
2022-08-24T18:29:54.815Z,26.37
2022-08-24T18:34:01.774Z,26.33
2022-08-24T18:38:04.957Z,26.26
2022-08-24T18:42:09.407Z,26.20
2022-08-24T18:46:12.903Z,26.18
2022-08-24T18:50:17.559Z,26.16
2022-08-24T18:54:23.588Z,26.12
2022-08-24T18:58:26.873Z,26.05
2022-08-24T19:02:31.790Z,26.01
2022-08-24T19:06:36.522Z,25.97
2022-08-24T19:10:39.713Z,25.90
2022-08-24T19:14:46.348Z,25.86
2022-08-24T19:18:51.150Z,25.84
2022-08-24T19:22:55.827Z,25.83
2022-08-24T19:27:01.893Z,25.80
2022-08-24T19:31:10.511Z,25.75
2022-08-24T19:35:15.866Z,25.70
2022-08-24T19:39:22.917Z,25.65
2022-08-24T19:43:35.317Z,25.60
2022-08-24T19:47:38.875Z,25.55
2022-08-24T19:51:42.106Z,25.51
2022-08-24T19:55:50.090Z,25.46
2022-08-24T19:59:54.103Z,25.43
2022-08-24T20:03:57.530Z,25.37
2022-08-24T20:08:03.323Z,25.30
2022-08-24T20:12:09.100Z,25.25
2022-08-24T20:16:15.301Z,25.17
2022-08-24T20:20:21.364Z,25.12
2022-08-24T20:24:24.659Z,25.05
2022-08-24T20:28:38.014Z,24.99
2022-08-24T20:32:41.714Z,24.94
2022-08-24T20:36:48.758Z,24.85
2022-08-24T20:40:53.294Z,24.80
2022-08-24T20:44:59.410Z,24.77
2022-08-24T20:49:02.941Z,24.72
2022-08-24T20:53:06.347Z,24.68
2022-08-24T20:57:12.958Z,24.66
2022-08-24T21:01:17.806Z,24.62
2022-08-24T21:05:21.296Z,24.59
2022-08-24T21:09:24.761Z,24.54
2022-08-24T21:13:28.352Z,24.50
2022-08-24T21:17:33.114Z,24.48
2022-08-24T21:21:39.574Z,24.47
2022-08-24T21:25:45.071Z,24.46
2022-08-24T21:29:48.298Z,24.41
2022-08-24T21:34:09.887Z,24.37
2022-08-24T21:38:14.559Z,24.37
2022-08-24T21:42:19.993Z,24.34
2022-08-24T21:46:29.177Z,24.34
2022-08-24T21:50:33.859Z,24.33
2022-08-24T21:54:36.971Z,24.29
2022-08-24T21:58:39.995Z,24.26
2022-08-24T22:02:43.205Z,24.27
2022-08-24T22:06:47.890Z,24.28
2022-08-24T22:10:50.979Z,24.24
2022-08-24T22:14:54.785Z,24.24
2022-08-24T22:18:57.886Z,24.24
2022-08-24T22:23:02.615Z,24.24
2022-08-24T22:27:11.865Z,24.25
2022-08-24T22:31:18.276Z,24.23
2022-08-24T22:35:22.588Z,24.22
2022-08-24T22:39:28.759Z,24.23
2022-08-24T22:43:52.484Z,24.22
2022-08-24T22:47:56.420Z,24.20
2022-08-24T22:52:00.680Z,24.17
2022-08-24T22:56:19.882Z,24.16
2022-08-24T23:00:23.880Z,24.15
2022-08-24T23:04:32.227Z,24.12
2022-08-24T23:08:36.369Z,24.13
2022-08-24T23:12:45.162Z,24.12
2022-08-24T23:16:54.319Z,24.11
2022-08-24T23:21:03.529Z,24.08
2022-08-24T23:25:10.142Z,24.05
2022-08-24T23:29:15.849Z,24.04
2022-08-24T23:33:19.357Z,24.02
2022-08-24T23:37:23.342Z,24.00
2022-08-24T23:41:29.033Z,23.95
2022-08-24T23:45:34.024Z,23.92
2022-08-24T23:49:37.904Z,23.93
2022-08-24T23:53:48.070Z,23.91
2022-08-24T23:57:53.802Z,23.95
